Time;durP1;ratioP1;P1;durP2;ratioP2;P2;SDS_P1;SDS_P2;PMS_P1;PMS_P2;Temp;Humidity;BMP_temperature;BMP_pressure;BME280_temperature;BME280_humidity;BME280_pressure;Samples;Min_cycle;Max_cycle;Signal;HPM_P1;HPM_P2
2023/09/23 00:01:15;;;;;;;2.33;1.15;;;17.60;99.90;;;;;;4979168;28;20502;-78
2023/09/23 00:03:41;;;;;;;2.03;1.15;;;;;;;;;;4995452;28;20069;-77
2023/09/23 00:06:08;;;;;;;3.20;1.00;;;17.90;99.90;;;;;;4995375;28;20131;-78
2023/09/23 00:08:34;;;;;;;2.80;0.98;;;17.90;99.90;;;;;;4995191;28;20046;-78
2023/09/23 00:11:00;;;;;;;2.85;2.00;;;17.60;99.90;;;;;;4979337;28;20038;-78
2023/09/23 00:13:28;;;;;;;4.35;1.10;;;;;;;;;;4979118;28;20038;-78
2023/09/23 00:15:55;;;;;;;1.40;0.90;;;;;;;;;;4995200;28;20045;-78
2023/09/23 00:18:21;;;;;;;1.92;1.00;;;17.70;99.90;;;;;;4978728;28;20104;-78
2023/09/23 00:20:48;;;;;;;3.17;0.93;;;17.60;99.90;;;;;;4978825;28;20041;-78
2023/09/23 00:23:14;;;;;;;5.70;1.40;;;17.50;99.90;;;;;;4995124;28;20038;-78
2023/09/23 00:25:40;;;;;;;1.80;1.13;;;;;;;;;;4994947;28;20092;-78
2023/09/23 00:28:11;;;;;;;4.18;1.05;;;18.00;99.90;;;;;;4978603;28;20137;-78
2023/09/23 00:30:39;;;;;;;3.10;1.10;;;17.70;99.90;;;;;;4995117;28;20050;-77
2023/09/23 00:33:06;;;;;;;1.02;0.80;;;17.70;99.90;;;;;;4994897;28;20038;-77
2023/09/23 00:35:34;;;;;;;2.00;0.85;;;17.60;99.90;;;;;;4994897;28;20412;-77
2023/09/23 00:38:00;;;;;;;1.70;0.77;;;17.90;99.90;;;;;;4978452;28;20073;-77
2023/09/23 00:40:32;;;;;;;2.03;0.90;;;17.60;99.90;;;;;;4978768;28;20068;-78
2023/09/23 00:43:05;;;;;;;1.52;0.90;;;17.80;99.90;;;;;;4978723;28;20120;-78
2023/09/23 00:45:31;;;;;;;2.58;0.95;;;17.60;99.90;;;;;;4978836;28;20112;-77
2023/09/23 00:47:58;;;;;;;2.65;0.80;;;17.60;99.90;;;;;;4994424;28;20460;-78
2023/09/23 00:50:24;;;;;;;1.65;0.70;;;17.70;99.90;;;;;;4994950;28;20449;-77
2023/09/23 00:52:51;;;;;;;2.78;1.00;;;17.70;99.90;;;;;;4978277;28;20053;-77
2023/09/23 00:55:24;;;;;;;2.03;1.02;;;17.60;99.90;;;;;;4994625;28;20038;-77
2023/09/23 00:57:53;;;;;;;1.42;0.73;;;17.50;99.90;;;;;;4994612;28;20100;-77
2023/09/23 01:00:25;;;;;;;1.10;0.70;;;17.70;99.90;;;;;;4994511;28;20046;-77
2023/09/23 01:02:50;;;;;;;0.80;0.73;;;17.70;99.90;;;;;;4994598;28;20096;-77
2023/09/23 01:05:19;;;;;;;2.47;1.40;;;17.70;99.90;;;;;;5011086;28;20034;-78
2023/09/23 01:07:48;;;;;;;3.13;1.80;;;17.70;99.90;;;;;;4994375;28;20041;-77
2023/09/23 01:10:17;;;;;;;2.13;1.67;;;17.50;99.90;;;;;;4994139;28;20095;-77
2023/09/23 01:12:48;;;;;;;2.90;2.08;;;;;;;;;;4994330;28;20049;-77
2023/09/23 01:15:18;;;;;;;4.95;1.90;;;17.50;99.90;;;;;;4994355;28;20077;-77
2023/09/23 01:17:49;;;;;;;5.10;2.55;;;17.60;99.90;;;;;;4977938;28;20038;-77
2023/09/23 01:20:16;;;;;;;1.90;1.42;;;17.60;99.90;;;;;;4994570;28;20087;-78
2023/09/23 01:22:47;;;;;;;2.78;1.90;;;17.70;99.90;;;;;;4995183;28;20054;-77
2023/09/23 01:25:14;;;;;;;3.08;1.67;;;17.50;99.90;;;;;;4995153;28;20042;-77
2023/09/23 01:27:40;;;;;;;2.45;1.95;;;17.30;99.90;;;;;;4995012;28;20045;-78
2023/09/23 01:30:07;;;;;;;3.25;1.90;;;17.60;99.90;;;;;;4994961;28;20414;-78
2023/09/23 01:32:45;;;;;;;2.10;1.60;;;17.40;99.90;;;;;;4996082;28;20038;-77
2023/09/23 01:35:12;;;;;;;1.92;1.55;;;17.30;99.90;;;;;;4982728;28;20088;-78
2023/09/23 01:37:37;;;;;;;2.92;1.48;;;17.60;99.90;;;;;;5014602;28;20074;-78
2023/09/23 01:40:05;;;;;;;2.53;1.83;;;;;;;;;;4997944;28;20073;-78
2023/09/23 01:42:32;;;;;;;1.98;1.63;;;;;;;;;;4982644;28;20133;-77
2023/09/23 01:44:58;;;;;;;2.17;1.73;;;17.40;99.90;;;;;;4998080;28;20523;-77
2023/09/23 01:47:24;;;;;;;2.67;1.67;;;17.30;99.90;;;;;;4998195;28;20034;-77
2023/09/23 01:49:50;;;;;;;2.28;1.60;;;17.40;99.90;;;;;;4981803;28;20044;-77
2023/09/23 01:52:17;;;;;;;3.38;1.50;;;;;;;;;;4997706;28;20448;-76
2023/09/23 01:54:47;;;;;;;2.90;1.40;;;17.20;99.90;;;;;;4981836;28;20042;-77
2023/09/23 01:57:16;;;;;;;1.83;1.58;;;17.40;99.90;;;;;;4997801;28;20117;-77
2023/09/23 01:59:43;;;;;;;2.45;1.92;;;17.20;99.90;;;;;;4981576;28;20493;-77
2023/09/23 02:02:09;;;;;;;3.22;1.52;;;17.10;99.90;;;;;;4981555;28;20045;-77
2023/09/23 02:04:37;;;;;;;2.15;1.63;;;17.30;99.90;;;;;;4998045;28;20064;-77
2023/09/23 02:07:03;;;;;;;2.38;1.70;;;17.00;99.90;;;;;;4997715;28;20046;-77
2023/09/23 02:09:30;;;;;;;3.72;1.85;;;16.90;99.90;;;;;;4997783;28;20437;-77
2023/09/23 02:11:56;;;;;;;2.33;1.70;;;17.30;99.90;;;;;;4997728;28;20041;-78
2023/09/23 02:14:22;;;;;;;2.97;2.20;;;17.20;99.90;;;;;;4997940;28;20104;-77
2023/09/23 02:16:48;;;;;;;3.00;1.67;;;17.40;99.90;;;;;;4997682;28;20038;-77
2023/09/23 02:19:13;;;;;;;2.28;1.92;;;17.00;99.90;;;;;;4981395;28;20401;-77
2023/09/23 02:21:39;;;;;;;2.53;2.22;;;;;;;;;;4997729;28;20041;-77
2023/09/23 02:24:06;;;;;;;6.45;2.20;;;;;;;;;;4981210;28;20050;-77
2023/09/23 02:26:32;;;;;;;4.63;2.72;;;16.90;99.90;;;;;;4997195;28;20084;-77
2023/09/23 02:28:57;;;;;;;3.85;3.10;;;16.80;99.90;;;;;;4997087;28;20129;-77
2023/09/23 02:31:24;;;;;;;3.78;2.53;;;;;;;;;;4997352;28;20505;-76
2023/09/23 02:33:50;;;;;;;5.70;2.72;;;;;;;;;;4997167;28;20050;-77
2023/09/23 02:36:16;;;;;;;3.90;3.28;;;;;;;;;;4980838;28;20044;-76
2023/09/23 02:38:42;;;;;;;3.47;2.78;;;;;;;;;;4996888;28;20573;-78
2023/09/23 02:41:08;;;;;;;4.90;3.10;;;16.80;99.90;;;;;;4980597;28;20038;-77
2023/09/23 02:43:34;;;;;;;6.22;3.28;;;;;;;;;;4996103;28;20460;-77
2023/09/23 02:46:01;;;;;;;4.80;3.22;;;;;;;;;;4980555;28;20046;-76
2023/09/23 02:48:28;;;;;;;4.38;3.97;;;16.80;99.90;;;;;;4996713;28;20054;-78
2023/09/23 02:50:53;;;;;;;5.20;3.30;;;16.90;99.90;;;;;;4996875;28;20041;-77
2023/09/23 02:53:19;;;;;;;4.43;3.25;;;16.90;99.90;;;;;;4996679;28;20049;-77
2023/09/23 02:55:51;;;;;;;5.25;3.95;;;17.00;99.90;;;;;;4996981;28;20037;-77
2023/09/23 02:58:18;;;;;;;3.40;3.10;;;16.60;99.90;;;;;;4980498;28;20045;-77
2023/09/23 03:00:57;;;;;;;3.47;3.00;;;16.90;99.90;;;;;;4980830;28;20393;-78
2023/09/23 03:03:24;;;;;;;4.97;4.20;;;17.00;99.90;;;;;;4996727;28;20042;-77
2023/09/23 03:05:55;;;;;;;5.60;4.05;;;16.90;99.90;;;;;;4996954;28;20409;-78
2023/09/23 03:08:24;;;;;;;4.70;3.85;;;16.80;99.90;;;;;;5014087;28;20112;-78
2023/09/23 03:10:52;;;;;;;4.55;4.15;;;16.80;99.90;;;;;;4996498;28;20041;-77
2023/09/23 03:13:23;;;;;;;5.07;4.47;;;16.40;99.90;;;;;;4996546;28;20050;-77
2023/09/23 03:16:08;;;;;;;6.90;4.93;;;16.50;99.90;;;;;;4996629;28;20042;-77
2023/09/23 03:18:39;;;;;;;6.05;4.65;;;16.90;99.90;;;;;;4996335;28;20049;-77
2023/09/23 03:21:08;;;;;;;5.47;4.35;;;16.60;99.90;;;;;;4980313;28;20034;-78
2023/09/23 03:23:39;;;;;;;8.57;4.93;;;17.30;99.90;;;;;;5000954;28;20073;-76
2023/09/23 03:26:08;;;;;;;7.00;5.32;;;16.50;99.90;;;;;;5004360;28;20100;-77
2023/09/23 03:28:36;;;;;;;6.40;4.40;;;16.80;99.90;;;;;;4988702;28;20066;-76
2023/09/23 03:31:03;;;;;;;5.38;4.35;;;16.60;99.90;;;;;;5001218;28;20041;-77
2023/09/23 03:33:29;;;;;;;5.32;4.65;;;16.70;99.90;;;;;;5013583;28;20565;-77
2023/09/23 03:35:55;;;;;;;5.68;5.18;;;16.90;99.90;;;;;;4996090;28;20117;-77
2023/09/23 03:38:21;;;;;;;5.72;5.18;;;16.40;99.90;;;;;;5012313;28;20049;-77
2023/09/23 03:40:54;;;;;;;5.30;4.75;;;17.10;99.90;;;;;;4979990;28;20038;-77
2023/09/23 03:43:20;;;;;;;;;;;16.60;99.90;;;;;;4996305;28;20045;-77
2023/09/23 03:45:47;;;;;;;6.70;5.10;;;16.70;99.90;;;;;;4995927;28;19917;-77
2023/09/23 03:48:14;;;;;;;5.07;4.57;;;;;;;;;;4995703;28;20053;-77
2023/09/23 03:50:40;;;;;;;5.70;4.97;;;16.50;99.90;;;;;;4979704;28;20053;-77
2023/09/23 03:53:05;;;;;;;5.65;5.00;;;16.50;99.90;;;;;;5012042;28;20042;-77
2023/09/23 03:55:31;;;;;;;5.95;5.13;;;16.50;99.90;;;;;;4995541;28;20046;-77
2023/09/23 03:57:57;;;;;;;6.32;5.10;;;16.70;99.90;;;;;;4979318;28;20143;-76
2023/09/23 04:00:27;;;;;;;9.05;6.10;;;;;;;;;;4995578;28;20502;-77
2023/09/23 04:02:53;;;;;;;6.43;5.82;;;16.60;99.90;;;;;;4979682;28;20045;-77
2023/09/23 04:05:20;;;;;;;6.78;6.07;;;16.40;99.90;;;;;;4979301;28;20048;-77
2023/09/23 04:07:50;;;;;;;7.07;5.43;;;16.70;99.90;;;;;;4995320;28;20505;-76
2023/09/23 04:10:18;;;;;;;8.80;7.00;;;16.70;99.90;;;;;;4978866;28;20088;-77
2023/09/23 04:12:43;;;;;;;8.00;6.68;;;16.60;99.90;;;;;;4995354;28;20053;-77
2023/09/23 04:15:09;;;;;;;7.65;6.45;;;16.40;99.90;;;;;;4995341;28;20042;-77
2023/09/23 04:17:37;;;;;;;8.50;7.20;;;16.40;99.90;;;;;;4995183;28;20045;-77
2023/09/23 04:20:08;;;;;;;8.98;7.95;;;16.60;99.90;;;;;;4995349;28;20401;-77
2023/09/23 04:22:34;;;;;;;10.02;7.10;;;16.70;99.90;;;;;;4979019;28;20133;-77
2023/09/23 04:24:59;;;;;;;9.55;7.28;;;16.60;99.90;;;;;;4995334;28;20121;-78
2023/09/23 04:27:26;;;;;;;10.07;8.57;;;16.70;99.90;;;;;;4995055;28;20092;-77
2023/09/23 04:29:54;;;;;;;8.82;6.93;;;16.80;99.90;;;;;;4979193;28;20421;-77
2023/09/23 04:32:20;;;;;;;8.90;7.57;;;;;;;;;;4995142;28;20041;-77
2023/09/23 04:34:46;;;;;;;10.18;8.50;;;16.70;99.90;;;;;;4994983;28;20038;-77
2023/09/23 04:37:12;;;;;;;9.43;7.07;;;16.70;99.90;;;;;;4979174;28;20042;-77
2023/09/23 04:39:38;;;;;;;8.10;6.07;;;16.60;99.90;;;;;;4994621;28;20065;-77
2023/09/23 04:42:04;;;;;;;10.00;9.00;;;16.70;99.90;;;;;;4994686;28;20045;-77
2023/09/23 04:44:32;;;;;;;9.13;7.32;;;;;;;;;;4978754;28;20524;-78
2023/09/23 04:46:58;;;;;;;9.32;7.72;;;;;;;;;;4978919;28;20417;-77
2023/09/23 04:49:24;;;;;;;8.77;7.88;;;;;;;;;;4994800;28;20405;-77
2023/09/23 04:51:50;;;;;;;8.38;7.45;;;;;;;;;;4978405;28;20045;-77
2023/09/23 04:54:16;;;;;;;9.05;7.68;;;;;;;;;;4994555;28;20048;-76
2023/09/23 04:56:42;;;;;;;8.25;6.72;;;;;;;;;;4978694;28;20429;-74
2023/09/23 04:59:08;;;;;;;8.02;6.80;;;16.50;99.90;;;;;;4994533;28;20289;-78
2023/09/23 05:01:33;;;;;;;9.98;8.02;;;16.40;99.90;;;;;;4994543;28;20453;-77
2023/09/23 05:04:03;;;;;;;8.50;6.75;;;16.40;99.90;;;;;;4978534;28;20513;-77
2023/09/23 05:06:29;;;;;;;7.95;6.47;;;;;;;;;;4993969;28;20052;-76
2023/09/23 05:08:55;;;;;;;8.80;6.38;;;16.40;99.90;;;;;;4993957;28;20412;-77
2023/09/23 05:11:21;;;;;;;7.35;5.60;;;;;;;;;;4994421;28;20038;-77
2023/09/23 05:13:47;;;;;;;8.85;5.72;;;;;;;;;;4994518;28;20456;-77
2023/09/23 05:16:13;;;;;;;6.07;5.10;;;;;;;;;;4994495;28;20034;-76
2023/09/23 05:18:39;;;;;;;5.55;4.75;;;;;;;;;;4994649;28;20044;-78
2023/09/23 05:21:05;;;;;;;6.30;5.07;;;;;;;;;;4994432;28;20038;-76
2023/09/23 05:23:31;;;;;;;7.15;5.15;;;;;;;;;;4978405;28;20520;-76
2023/09/23 05:25:57;;;;;;;6.75;5.22;;;;;;;;;;4994433;28;20042;-76
2023/09/23 05:28:26;;;;;;;7.97;5.22;;;16.40;99.90;;;;;;4994171;28;20525;-77
2023/09/23 05:30:53;;;;;;;7.32;5.50;;;16.50;99.90;;;;;;4978122;28;20045;-77
2023/09/23 05:33:19;;;;;;;7.55;5.55;;;16.10;99.90;;;;;;4978117;28;20169;-77
2023/09/23 05:35:45;;;;;;;7.47;5.38;;;16.10;99.90;;;;;;4994103;28;20049;-77
2023/09/23 05:38:12;;;;;;;6.63;5.57;;;16.10;99.90;;;;;;5010429;28;20061;-77
2023/09/23 05:40:38;;;;;;;6.63;4.93;;;;;;;;;;4978123;28;20401;-76
2023/09/23 05:43:04;;;;;;;5.85;5.25;;;;;;;;;;4977946;28;20053;-77
2023/09/23 05:45:31;;;;;;;7.95;5.95;;;16.20;99.90;;;;;;4994188;28;20493;-77
2023/09/23 05:47:57;;;;;;;9.82;6.90;;;16.30;99.90;;;;;;4994284;28;20100;-77
2023/09/23 05:50:23;;;;;;;8.95;6.88;;;16.40;99.90;;;;;;4993818;28;20045;-77
2023/09/23 05:52:49;;;;;;;9.32;6.82;;;16.60;99.90;;;;;;4993999;28;20125;-77
2023/09/23 05:55:15;;;;;;;9.52;7.00;;;16.50;99.90;;;;;;4993970;28;20033;-77
2023/09/23 05:57:41;;;;;;;9.05;6.25;;;16.30;99.90;;;;;;4994151;28;20516;-77
2023/09/23 06:00:09;;;;;;;9.90;7.82;;;16.60;99.90;;;;;;4993719;28;20049;-77
2023/09/23 06:02:35;;;;;;;9.90;6.95;;;;;;;;;;4978086;28;20420;-76
2023/09/23 06:05:01;;;;;;;10.77;8.57;;;16.70;99.90;;;;;;4977677;28;20053;-76
2023/09/23 06:07:28;;;;;;;8.45;7.32;;;16.70;99.90;;;;;;4993816;28;20066;-77
2023/09/23 06:09:55;;;;;;;9.10;7.05;;;16.70;99.90;;;;;;5010524;28;20433;-77
2023/09/23 06:12:21;;;;;;;11.50;8.95;;;16.40;99.90;;;;;;4993830;28;20128;-77
2023/09/23 06:14:46;;;;;;;11.43;9.25;;;16.80;99.90;;;;;;4977746;28;20145;-78
2023/09/23 06:17:12;;;;;;;13.32;10.10;;;17.00;99.90;;;;;;4993744;28;20082;-77
2023/09/23 06:19:38;;;;;;;13.55;10.23;;;17.10;99.90;;;;;;4980480;28;20401;-78
2023/09/23 06:22:04;;;;;;;12.98;10.68;;;;;;;;;;4981142;28;20034;-77
2023/09/23 06:24:30;;;;;;;18.23;9.90;;;;;;;;;;4997419;28;20053;-77
2023/09/23 06:26:56;;;;;;;16.60;11.02;;;;;;;;;;4981444;28;20095;-76
2023/09/23 06:29:21;;;;;;;15.18;10.32;;;17.30;99.90;;;;;;4997362;28;20137;-78
2023/09/23 06:31:47;;;;;;;15.95;11.48;;;17.30;99.90;;;;;;4997345;28;20090;-77
2023/09/23 06:34:13;;;;;;;15.18;10.85;;;17.10;99.90;;;;;;4980957;28;20042;-77
2023/09/23 06:36:39;;;;;;;17.98;11.02;;;;;;;;;;4997460;28;20045;-77
2023/09/23 06:39:04;;;;;;;16.85;11.48;;;;;;;;;;4997559;28;20044;-76
2023/09/23 06:41:30;;;;;;;16.15;11.43;;;;;;;;;;4981771;28;20052;-77
2023/09/23 06:43:56;;;;;;;19.60;12.82;;;17.50;99.90;;;;;;4982008;28;20052;-77
2023/09/23 06:46:22;;;;;;;19.00;13.38;;;17.70;99.90;;;;;;4997715;28;20047;-77
2023/09/23 06:48:47;;;;;;;18.52;11.10;;;17.30;99.90;;;;;;4997293;28;20037;-77
2023/09/23 06:51:13;;;;;;;20.48;12.65;;;17.50;99.90;;;;;;4997019;28;20038;-77
2023/09/23 06:53:39;;;;;;;16.20;11.75;;;17.80;99.90;;;;;;4997278;28;20533;-77
2023/09/23 06:56:05;;;;;;;20.95;11.95;;;;;;;;;;4997323;28;20041;-77
2023/09/23 06:58:31;;;;;;;18.83;11.65;;;;;;;;;;4996853;28;20383;-76
2023/09/23 07:00:57;;;;;;;19.52;11.32;;;18.20;99.90;;;;;;4997288;28;20052;-78
2023/09/23 07:03:23;;;;;;;18.95;10.90;;;18.20;99.90;;;;;;4980984;28;20069;-78
2023/09/23 07:05:48;;;;;;;15.05;9.65;;;18.10;99.90;;;;;;4981220;28;20136;-78
2023/09/23 07:08:14;;;;;;;13.93;10.60;;;18.70;99.90;;;;;;4996625;28;20046;-78
2023/09/23 07:10:41;;;;;;;18.35;10.40;;;18.40;99.90;;;;;;4981060;28;20042;-77
2023/09/23 07:13:08;;;;;;;16.35;9.73;;;18.50;99.90;;;;;;4981324;28;20037;-78
2023/09/23 07:15:38;;;;;;;12.75;8.38;;;18.70;99.90;;;;;;4981167;28;20057;-78
2023/09/23 07:18:04;;;;;;;12.10;8.35;;;18.80;99.90;;;;;;4981012;28;20042;-78
2023/09/23 07:20:31;;;;;;;20.35;8.27;;;;;;;;;;4997465;28;20065;-77
2023/09/23 07:22:57;;;;;;;12.43;7.70;;;;;;;;;;4981838;28;20398;-77
2023/09/23 07:25:23;;;;;;;12.15;7.28;;;18.70;99.90;;;;;;4997613;28;20048;-77
2023/09/23 07:27:49;;;;;;;11.85;7.45;;;;;;;;;;4981574;28;20038;-77
2023/09/23 07:30:15;;;;;;;12.75;8.63;;;;;;;;;;4996688;28;20457;-77
2023/09/23 07:32:41;;;;;;;10.82;7.72;;;;;;;;;;4997384;28;20038;-78
2023/09/23 07:35:07;;;;;;;11.38;6.88;;;18.90;99.90;;;;;;4997733;28;20053;-76
2023/09/23 07:37:33;;;;;;;10.75;7.70;;;18.80;99.90;;;;;;4981227;28;20038;-78
2023/09/23 07:39:59;;;;;;;9.82;7.20;;;;;;;;;;5014120;28;20617;-77
2023/09/23 07:42:25;;;;;;;10.77;7.50;;;;;;;;;;4998315;28;20525;-78
2023/09/23 07:44:51;;;;;;;10.57;6.47;;;;;;;;;;4997737;28;20429;-78
2023/09/23 07:47:17;;;;;;;13.57;7.00;;;;;;;;;;4997835;28;20041;-79
2023/09/23 07:49:43;;;;;;;11.65;6.97;;;19.30;99.90;;;;;;4981603;28;20050;-78
2023/09/23 07:52:09;;;;;;;10.63;7.82;;;19.40;99.90;;;;;;4997213;28;20053;-78
2023/09/23 07:54:36;;;;;;;12.00;7.00;;;19.70;99.90;;;;;;4997741;28;20048;-78
2023/09/23 07:57:02;;;;;;;12.15;6.63;;;;;;;;;;4981949;28;20046;-79
2023/09/23 07:59:28;;;;;;;6.63;4.38;;;;;;;;;;4996935;28;20064;-78
2023/09/23 08:01:53;;;;;;;9.45;4.28;;;19.50;99.90;;;;;;4981672;28;20226;-78
2023/09/23 08:04:19;;;;;;;5.43;4.18;;;19.50;99.90;;;;;;4981744;28;20050;-79
2023/09/23 08:06:45;;;;;;;8.82;4.45;;;19.50;99.90;;;;;;4981441;28;20053;-79
2023/09/23 08:09:11;;;;;;;5.05;3.20;;;;;;;;;;4997862;28;20045;-79
2023/09/23 08:11:37;;;;;;;4.80;2.97;;;;;;;;;;4981949;28;20042;-79
2023/09/23 08:14:03;;;;;;;3.58;2.40;;;;;;;;;;4997722;28;20046;-79
2023/09/23 08:16:28;;;;;;;5.20;3.10;;;19.90;99.90;;;;;;4998221;28;20053;-78
2023/09/23 08:18:54;;;;;;;3.75;2.60;;;20.10;99.90;;;;;;5021072;28;20046;-79
2023/09/23 08:21:19;;;;;;;6.65;2.40;;;20.10;99.90;;;;;;5012042;28;20101;-78
2023/09/23 08:23:45;;;;;;;4.65;2.03;;;;;;;;;;4997382;28;20042;-78
2023/09/23 08:26:11;;;;;;;2.35;1.70;;;;;;;;;;4989241;28;20045;-79
2023/09/23 08:28:39;;;;;;;6.45;1.85;;;;;;;;;;4998056;28;20042;-79
2023/09/23 08:31:05;;;;;;;3.55;1.60;;;20.00;99.90;;;;;;4998347;28;20497;-78
2023/09/23 08:33:30;;;;;;;3.35;1.75;;;20.30;99.90;;;;;;4981774;28;20048;-79
2023/09/23 08:35:56;;;;;;;4.63;1.75;;;20.30;99.90;;;;;;4981773;28;20065;-79
2023/09/23 08:38:22;;;;;;;6.65;1.90;;;;;;;;;;4997894;28;20409;-79
2023/09/23 08:40:52;;;;;;;4.95;1.70;;;20.50;99.90;;;;;;4981380;28;20102;-79
2023/09/23 08:43:36;;;;;;;5.90;2.80;;;20.40;99.90;;;;;;4998033;28;20050;-79
2023/09/23 08:46:09;;;;;;;3.38;2.03;;;20.70;99.90;;;;;;4997780;28;20049;-79
2023/09/23 08:48:38;;;;;;;3.30;1.65;;;20.50;99.90;;;;;;4997172;28;20050;-79
2023/09/23 08:51:06;;;;;;;6.30;2.42;;;20.80;99.90;;;;;;4998383;28;20038;-79
2023/09/23 08:53:38;;;;;;;5.60;2.78;;;20.90;99.90;;;;;;4997220;28;20049;-78
2023/09/23 08:56:06;;;;;;;7.00;3.25;;;20.70;99.90;;;;;;5013623;28;20105;-78
2023/09/23 08:58:32;;;;;;;8.65;3.83;;;20.80;99.90;;;;;;4981429;28;20057;-79
2023/09/23 09:00:58;;;;;;;5.93;3.20;;;21.20;99.90;;;;;;4997555;28;20038;-79
2023/09/23 09:03:24;;;;;;;6.18;3.45;;;21.40;99.90;;;;;;4999620;28;20048;-79
2023/09/23 09:05:50;;;;;;;7.75;3.53;;;21.40;99.90;;;;;;5001185;28;20071;-78
2023/09/23 09:08:18;;;;;;;4.15;2.92;;;21.60;99.90;;;;;;4996902;28;20124;-79
2023/09/23 09:10:44;;;;;;;7.40;3.38;;;21.80;99.90;;;;;;4997500;28;20050;-79
2023/09/23 09:13:10;;;;;;;3.58;2.30;;;21.60;99.90;;;;;;4997485;28;20132;-79
2023/09/23 09:15:36;;;;;;;5.47;2.88;;;21.30;99.90;;;;;;4997710;28;20092;-79
2023/09/23 09:18:03;;;;;;;3.78;2.55;;;21.40;99.90;;;;;;4999060;28;20037;-79
2023/09/23 09:20:29;;;;;;;3.08;2.53;;;21.20;99.90;;;;;;4998933;28;20084;-80
2023/09/23 09:22:54;;;;;;;6.32;2.90;;;21.00;99.90;;;;;;5001295;28;20413;-80
2023/09/23 09:25:21;;;;;;;4.47;2.67;;;21.30;99.90;;;;;;5003617;28;20072;-79
2023/09/23 09:27:47;;;;;;;6.35;2.17;;;21.10;99.90;;;;;;5003039;28;20101;-79
2023/09/23 09:30:13;;;;;;;9.90;2.70;;;20.80;99.90;;;;;;5017070;28;20386;-79
2023/09/23 09:32:43;;;;;;;7.50;2.60;;;20.70;99.90;;;;;;4982805;28;20044;-79
2023/09/23 09:35:14;;;;;;;4.55;2.90;;;20.60;99.90;;;;;;5000816;28;20044;-79
2023/09/23 09:37:43;;;;;;;5.32;2.03;;;20.80;99.90;;;;;;4998968;28;20494;-79
2023/09/23 09:40:14;;;;;;;4.47;1.38;;;20.60;99.90;;;;;;4982273;28;20038;-79
2023/09/23 09:42:42;;;;;;;5.75;2.35;;;21.00;99.90;;;;;;5015409;28;20046;-79
2023/09/23 09:45:09;;;;;;;3.92;1.48;;;21.20;99.90;;;;;;4999635;28;20414;-79
2023/09/23 09:47:38;;;;;;;4.80;1.65;;;21.40;99.90;;;;;;4983130;28;20440;-79
2023/09/23 09:50:04;;;;;;;5.63;1.90;;;21.80;99.90;;;;;;4998273;28;20444;-79
2023/09/23 09:52:32;;;;;;;5.60;2.25;;;21.40;99.90;;;;;;5015062;28;20448;-79
2023/09/23 09:55:02;;;;;;;3.78;2.38;;;21.30;99.90;;;;;;5018770;28;20410;-79
2023/09/23 09:57:29;;;;;;;3.60;1.95;;;21.80;99.90;;;;;;4985743;28;20398;-80
2023/09/23 09:59:59;;;;;;;4.38;2.30;;;21.90;99.90;;;;;;5003091;28;20382;-79
2023/09/23 10:02:25;;;;;;;4.95;2.60;;;21.50;99.90;;;;;;5019094;28;20409;-79
2023/09/23 10:04:51;;;;;;;4.50;2.50;;;21.60;99.90;;;;;;5002752;28;20034;-79
2023/09/23 10:07:17;;;;;;;6.22;2.90;;;21.50;99.90;;;;;;5002559;28;20493;-79
2023/09/23 10:09:58;;;;;;;5.10;2.63;;;21.70;99.90;;;;;;5002562;28;20038;-80
2023/09/23 10:12:31;;;;;;;5.28;2.78;;;21.90;99.90;;;;;;5001671;28;20126;-80
2023/09/23 10:14:57;;;;;;;6.45;2.60;;;21.40;99.90;;;;;;5001419;28;20521;-80
2023/09/23 10:17:31;;;;;;;8.85;2.60;;;21.50;99.90;;;;;;5001601;28;20033;-79
2023/09/23 10:19:57;;;;;;;6.35;2.47;;;21.50;99.90;;;;;;4984875;28;20065;-80
2023/09/23 10:22:23;;;;;;;7.13;2.80;;;21.20;99.90;;;;;;5017888;28;20404;-80
2023/09/23 10:25:04;;;;;;;3.47;2.00;;;21.70;99.90;;;;;;4985032;28;20041;-80
2023/09/23 10:27:30;;;;;;;3.90;1.58;;;21.80;99.90;;;;;;5000255;28;20068;-80
2023/09/23 10:29:57;;;;;;;3.72;2.05;;;21.90;99.90;;;;;;5017323;28;20409;-79
2023/09/23 10:32:22;;;;;;;5.95;1.30;;;21.90;99.90;;;;;;5000331;28;20045;-80
2023/09/23 10:34:50;;;;;;;2.72;1.33;;;21.90;99.90;;;;;;5000233;28;20042;-79
2023/09/23 10:37:29;;;;;;;1.98;1.30;;;21.90;99.90;;;;;;5017124;28;20042;-79
2023/09/23 10:39:59;;;;;;;4.03;1.33;;;22.10;99.90;;;;;;5016423;28;20446;-80
2023/09/23 10:42:24;;;;;;;3.28;1.15;;;21.90;99.90;;;;;;4984749;28;20033;-79
2023/09/23 10:44:50;;;;;;;2.72;0.82;;;22.00;99.90;;;;;;4984425;28;20042;-80
2023/09/23 10:47:16;;;;;;;3.47;0.90;;;22.30;99.90;;;;;;5018504;28;20038;-80
2023/09/23 10:49:42;;;;;;;2.25;1.05;;;22.30;99.90;;;;;;5000307;28;20049;-80
2023/09/23 10:52:08;;;;;;;1.08;0.85;;;22.40;99.90;;;;;;4983556;28;20084;-79
2023/09/23 10:54:34;;;;;;;4.18;1.00;;;22.10;99.90;;;;;;4983326;28;20034;-80
2023/09/23 10:57:00;;;;;;;1.52;0.70;;;21.90;99.90;;;;;;4999844;28;20038;-80
2023/09/23 10:59:26;;;;;;;4.32;0.90;;;22.10;99.90;;;;;;4983429;28;20038;-80
2023/09/23 11:01:55;;;;;;;3.67;0.95;;;22.10;99.90;;;;;;4983536;28;20038;-80
2023/09/23 11:04:23;;;;;;;3.33;0.80;;;21.90;99.90;;;;;;4998957;28;20141;-79
2023/09/23 11:06:48;;;;;;;5.10;0.98;;;22.00;99.90;;;;;;4998689;28;20042;-80
2023/09/23 11:09:14;;;;;;;2.58;0.90;;;22.00;99.90;;;;;;4982905;28;20037;-80
2023/09/23 11:11:41;;;;;;;3.75;1.23;;;22.10;99.90;;;;;;4999698;28;20116;-80
2023/09/23 11:14:13;;;;;;;4.95;0.82;;;22.00;99.90;;;;;;4999339;28;20053;-80
2023/09/23 11:16:45;;;;;;;7.05;1.42;;;22.00;99.90;;;;;;4983325;28;20493;-80
2023/09/23 11:19:11;;;;;;;3.20;1.07;;;21.90;99.90;;;;;;4982873;28;20505;-80
2023/09/23 11:21:46;;;;;;;1.33;0.90;;;22.20;99.90;;;;;;4999008;28;20045;-80
2023/09/23 11:24:12;;;;;;;5.55;1.20;;;22.40;99.90;;;;;;4983181;28;20034;-80
2023/09/23 11:26:41;;;;;;;3.65;1.38;;;22.60;99.90;;;;;;4999221;28;20042;-80
2023/09/23 11:29:08;;;;;;;3.13;0.90;;;23.00;99.90;;;;;;4998485;28;20117;-80
2023/09/23 11:31:34;;;;;;;4.75;1.02;;;22.80;99.90;;;;;;4999310;28;20057;-80
2023/09/23 11:34:00;;;;;;;6.18;1.40;;;22.90;99.90;;;;;;4998885;28;20049;-80
2023/09/23 11:36:25;;;;;;;3.97;1.00;;;22.70;99.90;;;;;;5000633;28;20398;-80
2023/09/23 11:38:51;;;;;;;2.80;1.20;;;22.30;99.90;;;;;;4998836;28;20040;-80
2023/09/23 11:41:17;;;;;;;2.55;1.20;;;22.60;99.90;;;;;;4999578;28;20045;-80
2023/09/23 11:43:42;;;;;;;5.38;1.30;;;22.40;99.90;;;;;;4999436;28;20041;-80
2023/09/23 11:46:08;;;;;;;1.73;0.80;;;22.00;99.90;;;;;;4999233;28;20069;-80
2023/09/23 11:48:35;;;;;;;2.08;1.00;;;21.80;99.90;;;;;;4999043;28;20423;-80
2023/09/23 11:51:01;;;;;;;8.20;1.35;;;21.70;99.90;;;;;;4999283;28;20069;-80
2023/09/23 11:53:27;;;;;;;2.47;0.90;;;21.50;99.90;;;;;;5015273;28;20038;-79
2023/09/23 11:55:53;;;;;;;6.20;1.20;;;22.20;99.90;;;;;;4999780;28;20409;-80
2023/09/23 11:58:22;;;;;;;2.22;0.70;;;22.10;99.90;;;;;;4999023;28;20076;-79
2023/09/23 12:00:47;;;;;;;1.95;0.80;;;22.20;99.90;;;;;;5015281;28;20092;-80
2023/09/23 12:03:14;;;;;;;3.08;0.70;;;22.40;99.90;;;;;;4999050;28;20037;-79
2023/09/23 12:05:41;;;;;;;2.15;0.70;;;22.40;99.90;;;;;;4983141;28;20073;-79
2023/09/23 12:08:09;;;;;;;1.85;0.60;;;22.60;99.90;;;;;;4998271;28;20046;-79
2023/09/23 12:10:36;;;;;;;2.20;1.45;;;22.40;99.90;;;;;;4999086;28;20468;-80
2023/09/23 12:13:05;;;;;;;2.95;0.68;;;22.60;99.90;;;;;;5014689;28;20034;-79
2023/09/23 12:15:34;;;;;;;0.68;0.50;;;23.10;99.90;;;;;;4983290;28;20030;-80
2023/09/23 12:18:00;;;;;;;1.42;0.68;;;22.70;99.90;;;;;;4998282;28;20099;-79
2023/09/23 12:20:26;;;;;;;1.50;0.50;;;22.70;99.90;;;;;;4999125;28;20144;-79
2023/09/23 12:22:57;;;;;;;3.15;0.60;;;22.90;99.90;;;;;;5015157;28;20049;-80
2023/09/23 12:25:23;;;;;;;0.88;0.40;;;22.70;99.90;;;;;;4998492;28;20405;-80
2023/09/23 12:27:48;;;;;;;0.68;0.47;;;22.80;99.90;;;;;;4982144;28;20041;-80
2023/09/23 12:30:17;;;;;;;1.85;0.77;;;22.80;99.90;;;;;;4998011;28;20045;-80
2023/09/23 12:32:43;;;;;;;1.45;0.95;;;22.70;99.90;;;;;;4982419;28;20041;-80
2023/09/23 12:35:09;;;;;;;5.70;0.90;;;22.70;99.90;;;;;;4998683;28;20038;-81
2023/09/23 12:37:35;;;;;;;2.40;1.13;;;22.80;99.90;;;;;;4982950;28;20099;-80
2023/09/23 12:40:01;;;;;;;1.35;0.68;;;23.00;99.90;;;;;;4981795;28;20101;-79
2023/09/23 12:42:26;;;;;;;6.60;1.05;;;23.10;99.90;;;;;;5000226;28;20042;-80
2023/09/23 12:44:52;;;;;;;4.78;0.80;;;23.00;99.90;;;;;;4985859;28;20080;-80
2023/09/23 12:47:17;;;;;;;3.50;0.77;;;23.10;99.90;;;;;;5001765;28;20123;-80
2023/09/23 12:49:43;;;;;;;2.15;0.60;;;23.20;99.90;;;;;;5000491;28;20034;-80
2023/09/23 12:52:10;;;;;;;1.33;0.77;;;23.20;99.90;;;;;;4985197;28;20045;-80
2023/09/23 12:54:35;;;;;;;2.63;0.90;;;23.40;99.90;;;;;;5001803;28;20070;-80
2023/09/23 12:57:01;;;;;;;2.08;0.95;;;23.20;99.90;;;;;;5002022;28;20516;-80
2023/09/23 12:59:27;;;;;;;1.52;0.60;;;23.40;99.90;;;;;;5000652;28;20065;-80
2023/09/23 13:01:52;;;;;;;2.92;0.82;;;23.20;99.90;;;;;;5001750;28;20455;-80
2023/09/23 13:04:18;;;;;;;3.55;0.82;;;23.50;99.90;;;;;;4984927;28;20041;-80